Time,TemperatureF,DewpointF,PressureIn,WindDirection,WindDirectionDegrees,WindSpeedMPH,WindSpeedGustMPH,Humidity,HourlyPrecipIn,Conditions,Clouds,dailyrainin,SoftwareType,DateUTC
2013-08-19 00:06:00,69.5,69.0,30.13,ESE,114,0.0,1.0,98,0.00,,,0.00,weatherlink.com 1.10,2013-08-19 04:06:00,
2013-08-19 00:21:00,69.2,69.0,30.13,ESE,114,0.0,0.0,98,0.00,,,0.00,weatherlink.com 1.10,2013-08-19 04:21:00,
2013-08-19 00:36:00,69.1,69.0,30.13,ESE,114,0.0,0.0,98,0.00,,,0.00,weatherlink.com 1.10,2013-08-19 04:36:00,
2013-08-19 00:51:00,69.0,69.0,30.13,ESE,114,0.0,0.0,98,0.00,,,0.00,weatherlink.com 1.10,2013-08-19 04:51:00,
2013-08-19 01:06:00,69.2,69.0,30.13,ESE,114,0.0,0.0,98,0.00,,,0.00,weatherlink.com 1.10,2013-08-19 05:06:00,
2013-08-19 01:21:00,69.0,69.0,30.14,ESE,114,0.0,0.0,98,0.00,,,0.00,weatherlink.com 1.10,2013-08-19 05:21:00,
2013-08-19 01:36:00,69.0,69.0,30.13,ESE,114,0.0,0.0,98,0.00,,,0.00,weatherlink.com 1.10,2013-08-19 05:36:00,
2013-08-19 01:51:00,68.9,68.0,30.12,ESE,114,0.0,0.0,98,0.00,,,0.00,weatherlink.com 1.10,2013-08-19 05:51:00,
2013-08-19 02:07:00,68.9,68.0,30.11,ESE,114,0.0,0.0,98,0.00,,,0.00,weatherlink.com 1.10,2013-08-19 06:07:00,
2013-08-19 02:22:00,68.8,68.0,30.11,ESE,114,0.0,0.0,98,0.00,,,0.00,weatherlink.com 1.10,2013-08-19 06:22:00,
2013-08-19 02:37:00,68.6,68.0,30.12,ESE,114,0.0,0.0,99,0.01,,,0.01,weatherlink.com 1.10,2013-08-19 06:37:00,
2013-08-19 02:52:00,68.6,68.0,30.11,ESE,114,0.0,0.0,99,0.01,,,0.01,weatherlink.com 1.10,2013-08-19 06:52:00,
2013-08-19 03:07:00,68.6,68.0,30.10,ESE,114,0.0,0.0,99,0.01,,,0.01,weatherlink.com 1.10,2013-08-19 07:07:00,
2013-08-19 03:22:00,68.8,69.0,30.11,ESE,114,0.0,0.0,99,0.01,,,0.01,weatherlink.com 1.10,2013-08-19 07:22:00,
2013-08-19 03:37:00,68.9,69.0,30.11,ESE,114,0.0,0.0,99,0.01,,,0.02,weatherlink.com 1.10,2013-08-19 07:37:00,
2013-08-19 03:52:00,68.8,69.0,30.10,ESE,114,0.0,0.0,99,0.02,,,0.03,weatherlink.com 1.10,2013-08-19 07:52:00,
2013-08-19 04:07:00,68.6,68.0,30.10,ESE,114,0.0,0.0,99,0.02,,,0.03,weatherlink.com 1.10,2013-08-19 08:07:00,
2013-08-19 04:22:00,68.4,68.0,30.10,ESE,114,0.0,0.0,99,0.02,,,0.03,weatherlink.com 1.10,2013-08-19 08:22:00,
2013-08-19 04:38:00,68.3,68.0,30.10,ESE,114,0.0,0.0,99,0.01,,,0.03,weatherlink.com 1.10,2013-08-19 08:38:00,
2013-08-19 04:52:00,68.2,68.0,30.09,ESE,114,0.0,0.0,99,0.00,,,0.03,weatherlink.com 1.10,2013-08-19 08:52:00,
2013-08-19 05:07:00,68.1,68.0,30.10,ESE,114,0.0,0.0,99,0.00,,,0.03,weatherlink.com 1.10,2013-08-19 09:07:00,
2013-08-19 16:23:00,78.6,72.0,30.06,NE,43,0.0,1.0,81,0.00,,,0.29,weatherlink.com 1.10,2013-08-19 20:23:00,
2013-08-19 16:37:00,78.0,73.0,30.06,North,6,1.0,2.0,83,0.00,,,0.29,weatherlink.com 1.10,2013-08-19 20:37:00,
2013-08-19 16:52:00,78.5,72.0,30.05,NNE,18,0.0,1.0,81,0.00,,,0.29,weatherlink.com 1.10,2013-08-19 20:52:00,
2013-08-19 17:07:00,78.9,72.0,30.05,North,4,1.0,2.0,80,0.00,,,0.29,weatherlink.com 1.10,2013-08-19 21:07:00,
2013-08-19 17:22:00,80.6,73.0,30.04,NNE,21,1.0,1.0,78,0.00,,,0.29,weatherlink.com 1.10,2013-08-19 21:22:00,
2013-08-19 17:37:00,79.2,72.0,30.04,NNE,12,0.0,3.0,79,0.00,,,0.29,weatherlink.com 1.10,2013-08-19 21:37:00,
2013-08-19 17:52:00,79.0,73.0,30.04,NNE,23,0.0,1.0,81,0.00,,,0.29,weatherlink.com 1.10,2013-08-19 21:52:00,
2013-08-19 18:07:00,78.6,72.0,30.04,NNW,344,0.0,2.0,80,0.00,,,0.29,weatherlink.com 1.10,2013-08-19 22:07:00,
2013-08-19 18:22:00,78.1,72.0,30.04,North,8,0.0,2.0,81,0.00,,,0.29,weatherlink.com 1.10,2013-08-19 22:22:00,
2013-08-19 18:37:00,77.8,72.0,30.04,NNE,27,0.0,1.0,82,0.00,,,0.29,weatherlink.com 1.10,2013-08-19 22:37:00,
2013-08-19 18:52:00,77.6,73.0,30.04,NNE,30,0.0,1.0,84,0.00,,,0.29,weatherlink.com 1.10,2013-08-19 22:52:00,
2013-08-19 19:07:00,77.2,72.0,30.04,NNE,25,0.0,1.0,83,0.00,,,0.29,weatherlink.com 1.10,2013-08-19 23:07:00,
2013-08-19 19:22:00,76.9,72.0,30.04,NE,41,0.0,1.0,85,0.00,,,0.29,weatherlink.com 1.10,2013-08-19 23:22:00,
2013-08-19 19:37:00,76.3,72.0,30.04,NE,39,0.0,1.0,87,0.00,,,0.29,weatherlink.com 1.10,2013-08-19 23:37:00,
2013-08-19 19:52:00,75.4,72.0,30.04,NE,41,0.0,1.0,89,0.00,,,0.29,weatherlink.com 1.10,2013-08-19 23:52:00,
2013-08-19 20:07:00,74.5,72.0,30.04,NE,41,0.0,1.0,91,0.00,,,0.29,weatherlink.com 1.10,2013-08-20 00:07:00,
2013-08-19 20:22:00,73.7,71.0,30.04,NE,41,0.0,1.0,92,0.00,,,0.29,weatherlink.com 1.10,2013-08-20 00:22:00,
2013-08-19 20:37:00,73.0,71.0,30.05,NE,41,0.0,1.0,93,0.00,,,0.29,weatherlink.com 1.10,2013-08-20 00:37:00,
2013-08-19 20:52:00,72.4,71.0,30.05,NE,43,0.0,1.0,94,0.00,,,0.29,weatherlink.com 1.10,2013-08-20 00:52:00,
2013-08-19 21:07:00,71.8,70.0,30.05,NE,44,0.0,0.0,95,0.00,,,0.29,weatherlink.com 1.10,2013-08-20 01:07:00,
2013-08-19 21:23:00,71.2,70.0,30.06,NE,44,0.0,0.0,95,0.00,,,0.29,weatherlink.com 1.10,2013-08-20 01:23:00,
2013-08-19 21:38:00,70.7,70.0,30.07,NE,44,0.0,0.0,96,0.00,,,0.29,weatherlink.com 1.10,2013-08-20 01:38:00,
2013-08-19 21:53:00,70.5,70.0,30.07,NE,44,0.0,0.0,97,0.00,,,0.29,weatherlink.com 1.10,2013-08-20 01:53:00,
2013-08-19 22:08:00,70.4,70.0,30.07,NE,46,0.0,1.0,97,0.00,,,0.29,weatherlink.com 1.10,2013-08-20 02:08:00,
2013-08-19 22:23:00,70.1,69.0,30.08,NE,46,0.0,0.0,97,0.00,,,0.29,weatherlink.com 1.10,2013-08-20 02:23:00,
2013-08-19 22:38:00,70.0,69.0,30.08,NE,46,0.0,0.0,98,0.00,,,0.29,weatherlink.com 1.10,2013-08-20 02:38:00,
2013-08-19 22:53:00,69.9,69.0,30.08,NE,46,0.0,0.0,98,0.00,,,0.29,weatherlink.com 1.10,2013-08-20 02:53:00,
2013-08-19 23:08:00,69.8,69.0,30.08,NE,46,0.0,0.0,98,0.00,,,0.29,weatherlink.com 1.10,2013-08-20 03:08:00,
2013-08-19 23:23:00,69.6,69.0,30.08,NE,46,0.0,1.0,98,0.00,,,0.29,weatherlink.com 1.10,2013-08-20 03:23:00,
2013-08-19 23:38:00,69.4,69.0,30.09,NE,46,0.0,0.0,98,0.00,,,0.29,weatherlink.com 1.10,2013-08-20 03:38:00,
2013-08-19 23:53:00,69.5,69.0,30.09,NE,46,0.0,0.0,98,0.00,,,0.29,weatherlink.com 1.10,2013-08-20 03:53:00,